createdAt,value
2017-05-19T00:00:48.858Z,23.06
2017-05-19T00:01:51.839Z,23.02
2017-05-19T00:02:54.217Z,23.06
2017-05-19T00:03:56.582Z,23.02
2017-05-19T00:04:58.976Z,23.00
2017-05-19T00:06:01.367Z,23.00
2017-05-19T00:07:04.390Z,22.94
2017-05-19T00:08:06.810Z,22.96
2017-05-19T00:09:09.236Z,22.93
2017-05-19T00:10:11.570Z,22.98
2017-05-19T00:11:13.943Z,22.88
2017-05-19T00:12:16.913Z,22.96
2017-05-19T00:13:19.329Z,22.96
2017-05-19T00:14:21.699Z,22.93
2017-05-19T00:15:24.093Z,22.84
2017-05-19T00:16:26.474Z,22.84
2017-05-19T00:17:29.459Z,22.85
2017-05-19T00:18:32.419Z,22.83
2017-05-19T00:19:34.724Z,22.81
2017-05-19T00:20:37.102Z,22.83
2017-05-19T00:21:39.489Z,22.85
2017-05-19T00:22:42.503Z,22.78
2017-05-19T00:23:44.862Z,22.88
2017-05-19T00:24:47.264Z,22.83
2017-05-19T00:25:49.633Z,22.85
2017-05-19T00:26:52.000Z,22.85
2017-05-19T00:27:54.993Z,22.83
2017-05-19T00:28:57.386Z,22.81
2017-05-19T00:29:59.648Z,22.83
2017-05-19T15:25:32.878Z,25.25
2017-05-19T15:26:35.073Z,25.17
2017-05-19T15:27:37.383Z,25.11
2017-05-19T15:28:39.752Z,25.11
2017-05-19T15:29:42.122Z,25.26
2017-05-19T15:30:45.029Z,25.21
2017-05-19T15:31:47.396Z,25.33
2017-05-19T15:32:49.760Z,25.36
2017-05-19T15:33:52.799Z,25.38
2017-05-19T15:34:54.897Z,25.40
2017-05-19T15:35:57.973Z,25.53
2017-05-19T15:37:00.332Z,25.43
2017-05-19T15:38:02.698Z,25.40
2017-05-19T15:39:05.073Z,25.38
2017-05-19T15:40:07.441Z,25.33
2017-05-19T15:41:10.439Z,25.41
2017-05-19T15:42:12.813Z,25.22
2017-05-19T15:43:15.191Z,25.14
2017-05-19T15:44:17.556Z,25.28
2017-05-19T15:45:19.925Z,25.29
2017-05-19T15:46:22.898Z,25.22
2017-05-19T15:47:25.257Z,25.16
2017-05-19T15:48:27.627Z,25.22
2017-05-19T15:49:29.989Z,25.10
2017-05-19T15:50:32.364Z,25.08
2017-05-19T15:51:35.330Z,25.06
2017-05-19T15:52:37.702Z,25.25
2017-05-19T15:53:40.057Z,25.38
2017-05-19T15:54:42.436Z,25.44
2017-05-19T15:55:44.814Z,25.65
2017-05-19T15:56:47.814Z,25.83
2017-05-19T15:57:50.187Z,25.55
2017-05-19T15:58:52.605Z,25.44
2017-05-19T15:59:54.931Z,25.33
2017-05-19T16:00:57.308Z,25.33
2017-05-19T16:02:00.226Z,25.41
2017-05-19T16:03:02.897Z,25.38
2017-05-19T16:04:05.529Z,25.17
2017-05-19T16:05:07.902Z,24.98
2017-05-19T16:06:10.275Z,24.93
2017-05-19T16:07:13.354Z,25.01
2017-05-19T16:08:15.721Z,24.89
2017-05-19T16:09:18.075Z,24.78
2017-05-19T16:10:20.446Z,24.78
2017-05-19T16:11:22.819Z,24.81
2017-05-19T16:12:25.877Z,24.91
2017-05-19T16:13:28.249Z,25.06
2017-05-19T16:14:30.606Z,24.96
2017-05-19T16:15:33.011Z,25.13
2017-05-19T16:16:35.341Z,25.14
2017-05-19T16:18:40.799Z,25.28
2017-05-19T16:19:43.363Z,25.36
2017-05-19T16:20:46.047Z,25.41
2017-05-19T16:21:48.550Z,25.63
2017-05-19T16:22:51.164Z,26.03
2017-05-19T16:23:54.233Z,26.22
2017-05-19T16:24:56.634Z,26.36
2017-05-19T16:25:59.148Z,26.41
2017-05-19T16:27:02.396Z,26.56
2017-05-19T16:28:05.283Z,26.70
2017-05-19T16:29:08.477Z,26.77
2017-05-19T16:30:11.120Z,26.53
2017-05-19T16:31:13.453Z,26.45
2017-05-19T16:32:15.827Z,26.29
2017-05-19T16:33:18.198Z,26.03
2017-05-19T16:34:21.110Z,26.00
2017-05-19T16:35:23.661Z,25.83
2017-05-19T16:36:26.005Z,25.60
2017-05-19T16:37:28.371Z,25.36
2017-05-19T16:38:31.249Z,25.22
2017-05-19T16:39:34.774Z,25.07
2017-05-19T16:40:37.409Z,24.88
2017-05-19T16:41:39.766Z,24.68
2017-05-19T16:42:42.254Z,24.48
2017-05-19T16:43:44.623Z,24.50
2017-05-19T16:44:47.599Z,24.40
2017-05-19T16:45:50.206Z,24.45
2017-05-19T16:46:52.721Z,24.36
2017-05-19T16:47:55.070Z,24.45
2017-05-19T16:48:57.431Z,24.43
2017-05-19T16:50:00.442Z,24.53
2017-05-19T16:51:02.746Z,24.66
2017-05-19T16:52:05.177Z,24.85
2017-05-19T16:53:07.558Z,25.08
2017-05-19T16:54:09.918Z,25.10
2017-05-19T16:55:12.879Z,25.18
2017-05-19T16:56:15.262Z,25.06
2017-05-19T16:57:17.953Z,25.03
2017-05-19T16:58:20.494Z,24.93
2017-05-19T16:59:22.839Z,24.93
2017-05-19T17:00:25.817Z,24.76
2017-05-19T17:01:28.347Z,24.77
2017-05-19T17:02:30.945Z,24.70
2017-05-19T17:03:33.322Z,24.66
2017-05-19T17:04:35.681Z,24.77
2017-05-19T17:05:39.499Z,24.86
2017-05-19T17:06:42.145Z,24.93
2017-05-19T17:07:44.503Z,24.98
2017-05-19T17:08:46.869Z,24.86
2017-05-19T17:09:49.227Z,24.86
2017-05-19T17:10:52.763Z,24.96
2017-05-19T17:11:55.523Z,25.22
2017-05-19T17:12:57.870Z,25.41
2017-05-19T17:14:00.238Z,25.53
2017-05-19T17:15:03.076Z,25.32
2017-05-19T17:16:06.821Z,25.35
2017-05-19T17:17:09.706Z,25.55
2017-05-19T17:18:11.955Z,25.55
2017-05-19T17:19:14.979Z,25.55
2017-05-19T17:20:17.396Z,25.54
2017-05-19T17:21:20.323Z,25.48
2017-05-19T17:22:22.693Z,25.65
2017-05-19T17:23:25.269Z,25.83
2017-05-19T17:24:27.804Z,25.69
2017-05-19T17:25:30.163Z,25.63
2017-05-19T17:26:33.232Z,25.54
2017-05-19T17:27:35.639Z,25.21
2017-05-19T17:28:38.417Z,25.17
2017-05-19T17:29:40.759Z,25.23
2017-05-19T17:30:43.135Z,25.35
2017-05-19T17:31:46.336Z,25.62
2017-05-19T17:32:49.096Z,25.60
2017-05-19T17:33:51.462Z,25.73
2017-05-19T17:34:53.834Z,25.91
2017-05-19T17:35:56.656Z,26.18
2017-05-19T17:36:59.615Z,26.23
2017-05-19T17:38:01.988Z,26.51
2017-05-19T17:39:04.357Z,26.43
2017-05-19T17:40:07.139Z,26.58
2017-05-19T17:41:09.643Z,26.52
2017-05-19T17:42:13.584Z,26.13
2017-05-19T17:43:15.875Z,25.80
2017-05-19T17:44:18.311Z,25.68
2017-05-19T17:45:20.678Z,25.60
2017-05-19T17:46:23.041Z,25.58
2017-05-19T17:47:27.186Z,25.83
2017-05-19T17:48:29.916Z,26.06
2017-05-19T17:49:32.562Z,26.09
2017-05-19T17:50:35.365Z,26.26
2017-05-19T17:51:38.048Z,26.33
2017-05-19T17:52:41.727Z,26.65
2017-05-19T17:53:44.619Z,27.10
2017-05-19T17:54:46.906Z,27.17
2017-05-19T17:55:49.275Z,26.74
2017-05-19T17:56:52.449Z,26.78
2017-05-19T17:57:55.677Z,26.83
2017-05-19T17:58:58.069Z,27.00
2017-05-19T18:00:00.423Z,27.11
2017-05-19T18:01:02.932Z,27.27
2017-05-19T18:02:05.703Z,27.27
2017-05-19T18:03:09.474Z,27.52
2017-05-19T18:04:12.197Z,27.85
2017-05-19T18:05:14.593Z,27.83
2017-05-19T18:06:16.939Z,28.00
2017-05-19T18:07:19.328Z,27.90
2017-05-19T18:08:22.323Z,28.04
2017-05-19T18:09:24.766Z,28.05
2017-05-19T18:10:27.220Z,27.92
2017-05-19T18:11:29.603Z,27.95
2017-05-19T18:12:31.965Z,27.58
2017-05-19T18:13:34.899Z,27.54
2017-05-19T18:14:37.591Z,27.64
2017-05-19T18:15:40.189Z,27.74
2017-05-19T18:16:42.551Z,27.68
2017-05-19T18:17:44.925Z,27.71
2017-05-19T18:18:48.618Z,27.73
2017-05-19T18:19:51.402Z,27.82
2017-05-19T18:20:53.775Z,27.64
2017-05-19T18:21:56.165Z,27.32
2017-05-19T18:22:58.640Z,27.02
2017-05-19T18:24:02.409Z,27.02
2017-05-19T18:25:04.782Z,26.90
2017-05-19T18:26:07.140Z,27.15
2017-05-19T18:27:09.524Z,27.27
2017-05-19T18:28:12.410Z,27.10
2017-05-19T18:29:16.237Z,27.25
2017-05-19T18:30:18.612Z,27.20
2017-05-19T18:31:20.984Z,27.00
2017-05-19T18:32:23.631Z,26.78
2017-05-19T18:33:26.275Z,26.73
2017-05-19T18:34:29.235Z,26.62
2017-05-19T18:35:31.606Z,26.71
2017-05-19T18:36:34.439Z,26.65
2017-05-19T18:37:37.275Z,26.56
2017-05-19T18:38:39.634Z,26.59
2017-05-19T18:39:42.772Z,26.44
2017-05-19T18:40:45.439Z,26.63
2017-05-19T18:41:47.674Z,26.80
2017-05-19T18:42:50.042Z,26.68
2017-05-19T18:43:52.421Z,26.59
2017-05-19T18:44:55.926Z,26.58
2017-05-19T18:45:58.653Z,26.77
2017-05-19T18:47:01.024Z,26.85
2017-05-19T18:48:03.394Z,26.83
2017-05-19T18:49:05.779Z,26.63
2017-05-19T18:50:09.685Z,26.52
2017-05-19T18:51:12.203Z,26.21
2017-05-19T18:52:14.562Z,26.05
2017-05-19T18:53:16.933Z,25.98
2017-05-19T18:54:19.424Z,25.75
2017-05-19T18:55:22.423Z,25.41
2017-05-19T18:56:24.803Z,25.40
2017-05-19T18:57:27.255Z,25.21
2017-05-19T18:58:29.574Z,25.22
2017-05-19T18:59:32.074Z,25.22
2017-05-19T19:00:35.248Z,25.23
2017-05-19T19:01:37.621Z,25.29
2017-05-19T19:02:40.051Z,25.47
2017-05-19T19:03:42.508Z,25.55
2017-05-19T19:04:45.118Z,25.69
2017-05-19T19:05:48.175Z,25.75
2017-05-19T19:06:50.544Z,25.96
2017-05-19T19:07:52.925Z,26.09
2017-05-19T19:08:55.441Z,26.40
2017-05-19T19:09:57.809Z,26.56
2017-05-19T19:11:00.776Z,26.75
2017-05-19T19:12:03.157Z,26.81
2017-05-19T19:13:05.741Z,26.75
2017-05-19T19:14:08.104Z,26.84
2017-05-19T19:15:10.517Z,26.97
2017-05-19T19:16:13.482Z,27.10
2017-05-19T19:17:16.016Z,27.14
2017-05-19T19:18:18.371Z,27.20
2017-05-19T19:19:20.747Z,27.07
2017-05-19T19:20:23.131Z,26.96
2017-05-19T19:21:26.202Z,26.66
2017-05-19T19:22:28.581Z,26.58
2017-05-19T19:23:30.970Z,26.74
2017-05-19T19:24:33.347Z,26.55
2017-05-19T19:25:35.718Z,26.41
2017-05-19T19:26:38.849Z,26.10
2017-05-19T19:27:41.222Z,26.03
2017-05-19T19:28:43.603Z,26.07
2017-05-19T19:29:46.042Z,25.78
2017-05-19T19:30:48.366Z,25.98
2017-05-19T19:31:51.357Z,26.19
2017-05-19T19:32:53.742Z,26.48
2017-05-19T19:33:56.132Z,26.48
2017-05-19T19:34:58.553Z,26.47
2017-05-19T19:36:00.886Z,26.28
2017-05-19T19:37:03.948Z,26.29
2017-05-19T19:38:06.351Z,26.07
2017-05-19T19:39:08.718Z,25.98
2017-05-19T19:40:11.094Z,25.90
2017-05-19T19:41:13.473Z,25.91
2017-05-19T19:42:16.522Z,26.06
2017-05-19T19:43:18.901Z,26.13
2017-05-19T19:44:21.277Z,25.95
2017-05-19T19:45:23.669Z,25.72
2017-05-19T19:46:26.056Z,25.60
2017-05-19T19:47:29.164Z,25.58
2017-05-19T19:48:31.535Z,25.65
2017-05-19T19:49:33.917Z,25.91
2017-05-19T19:50:36.282Z,26.22
2017-05-19T19:51:38.641Z,26.36
2017-05-19T19:52:41.634Z,26.22
2017-05-19T19:53:44.051Z,26.09
2017-05-19T19:54:46.423Z,26.06
2017-05-19T19:55:48.867Z,25.91
2017-05-19T19:56:51.223Z,25.72
2017-05-19T19:57:54.203Z,25.72
2017-05-19T19:58:56.647Z,25.77
2017-05-19T19:59:58.962Z,26.09
2017-05-19T20:01:01.348Z,26.25
2017-05-19T20:02:03.759Z,26.45
2017-05-19T20:03:06.755Z,26.62
2017-05-19T20:04:09.146Z,26.74
2017-05-19T20:05:11.565Z,26.63
2017-05-19T20:06:13.944Z,26.58
2017-05-19T20:07:16.356Z,26.41
2017-05-19T20:08:19.317Z,26.77
2017-05-19T20:09:21.724Z,26.89
2017-05-19T20:10:24.121Z,27.11
2017-05-19T20:11:28.149Z,27.07
2017-05-19T20:12:31.324Z,26.99
2017-05-19T20:14:04.635Z,27.10
2017-05-19T20:15:07.062Z,27.14
2017-05-19T20:17:07.293Z,27.14
2017-05-19T20:18:29.938Z,27.14
2017-05-19T20:20:18.140Z,27.02
2017-05-19T20:21:20.657Z,26.71
2017-05-19T20:22:23.035Z,26.45
2017-05-19T20:23:28.526Z,26.23
2017-05-19T20:25:00.173Z,26.19
2017-05-19T20:27:32.831Z,26.22
2017-05-19T20:28:42.256Z,26.25
2017-05-19T20:29:40.437Z,26.23
2017-05-19T20:30:43.342Z,26.25
2017-05-19T20:31:46.312Z,26.38
2017-05-19T20:33:02.252Z,26.59
2017-05-19T20:34:25.121Z,26.78
2017-05-19T20:36:44.323Z,26.53
2017-05-19T20:37:52.401Z,26.56
2017-05-19T20:38:57.226Z,26.34
2017-05-19T20:40:04.914Z,26.33
2017-05-19T20:41:07.618Z,26.41
2017-05-19T20:42:18.492Z,26.51
2017-05-19T20:43:23.199Z,26.63
2017-05-19T20:46:27.783Z,26.83
2017-05-19T20:47:54.681Z,26.63
2017-05-19T20:49:22.023Z,26.44
2017-05-19T20:50:26.579Z,26.37
2017-05-19T20:51:29.334Z,26.18
2017-05-19T20:52:31.650Z,26.09
2017-05-19T20:54:18.054Z,25.91
2017-05-19T20:56:10.922Z,25.68
2017-05-19T20:57:34.691Z,25.51
2017-05-19T20:59:20.986Z,25.50
2017-05-19T21:01:25.850Z,25.51
2017-05-19T21:03:19.924Z,25.40
2017-05-19T21:04:23.866Z,25.54
2017-05-19T21:06:09.507Z,25.62
2017-05-19T21:07:59.770Z,25.81
2017-05-19T21:09:46.025Z,26.10
2017-05-19T21:11:16.438Z,26.26
2017-05-19T21:14:13.403Z,26.09
2017-05-19T21:15:16.375Z,26.09
2017-05-19T21:18:14.075Z,25.66
2017-05-19T21:19:19.595Z,25.70
2017-05-19T21:22:18.043Z,26.19
2017-05-19T21:25:54.753Z,25.58
2017-05-19T21:27:14.167Z,25.54
2017-05-19T21:31:30.176Z,25.44
2017-05-19T21:33:28.836Z,25.21
2017-05-19T21:35:34.891Z,25.16
2017-05-19T21:36:41.928Z,25.16
2017-05-19T21:38:05.491Z,25.23
2017-05-19T21:39:07.888Z,25.18
2017-05-19T21:40:53.436Z,25.40
2017-05-19T21:43:40.997Z,25.43
2017-05-19T21:44:44.375Z,25.31
2017-05-19T21:46:52.062Z,25.31
2017-05-19T21:49:09.739Z,25.50
2017-05-19T21:52:25.311Z,25.99
2017-05-19T21:54:59.184Z,25.87
2017-05-19T21:57:28.853Z,25.60
2017-05-19T21:58:30.912Z,25.44
2017-05-19T22:00:20.566Z,25.14
2017-05-19T22:02:04.790Z,25.29
2017-05-19T22:03:50.339Z,25.22
2017-05-19T22:04:55.826Z,25.18
2017-05-19T22:05:58.096Z,25.43
2017-05-19T22:07:00.492Z,25.38
2017-05-19T22:08:02.881Z,25.41
2017-05-19T22:09:05.294Z,25.46
2017-05-19T22:10:08.206Z,25.41
2017-05-19T22:11:10.605Z,25.23
2017-05-19T22:12:12.965Z,25.28
2017-05-19T22:13:15.345Z,25.25
2017-05-19T22:14:17.718Z,25.16
2017-05-19T22:15:20.716Z,25.32
2017-05-19T22:16:23.099Z,25.43
2017-05-19T22:17:25.473Z,25.36
2017-05-19T22:18:27.842Z,25.31
2017-05-19T22:19:30.217Z,25.13
2017-05-19T22:20:33.309Z,25.03
2017-05-19T22:21:35.687Z,24.91
2017-05-19T22:22:38.056Z,25.08
2017-05-19T22:23:40.430Z,25.10
2017-05-19T22:24:42.818Z,25.11
2017-05-19T22:25:45.900Z,25.13
2017-05-19T22:26:48.268Z,25.25
2017-05-19T22:27:50.638Z,24.92
2017-05-19T22:28:53.015Z,24.81
2017-05-19T22:29:55.375Z,24.93
2017-05-19T22:30:58.452Z,24.93
2017-05-19T22:32:00.845Z,24.99
2017-05-19T22:33:03.218Z,24.98
2017-05-19T22:34:05.612Z,24.91
2017-05-19T22:35:07.992Z,24.69
2017-05-19T22:36:10.968Z,24.63
2017-05-19T22:37:13.355Z,24.80
2017-05-19T22:38:15.705Z,24.86
2017-05-19T22:39:18.090Z,24.84
2017-05-19T22:40:20.472Z,24.91
2017-05-19T22:41:23.448Z,24.88
2017-05-19T22:42:25.814Z,24.80
2017-05-19T22:43:28.182Z,24.84
2017-05-19T22:44:30.551Z,24.77
2017-05-19T22:45:32.962Z,24.86
2017-05-19T22:46:35.931Z,24.86
2017-05-19T22:47:38.292Z,24.77
2017-05-19T22:48:40.664Z,24.70
2017-05-19T22:49:43.032Z,24.61
2017-05-19T22:50:45.394Z,24.53
2017-05-19T22:51:50.260Z,24.55
2017-05-19T22:52:52.627Z,24.42
2017-05-19T22:53:55.011Z,24.39
2017-05-19T22:54:57.380Z,24.33
2017-05-19T22:55:59.744Z,24.35
2017-05-19T22:57:02.810Z,24.33
2017-05-19T22:58:05.182Z,24.43
2017-05-19T22:59:07.549Z,24.38
2017-05-19T23:00:09.918Z,24.45
2017-05-19T23:01:12.290Z,24.47
2017-05-19T23:02:15.245Z,24.47
2017-05-19T23:03:17.617Z,24.39
2017-05-19T23:04:19.989Z,24.24
2017-05-19T23:05:22.359Z,24.11
2017-05-19T23:06:24.718Z,24.06
2017-05-19T23:07:27.791Z,24.02
2017-05-19T23:08:30.148Z,23.96
2017-05-19T23:09:32.520Z,23.91
2017-05-19T23:10:34.890Z,24.03
2017-05-19T23:11:37.256Z,23.98
2017-05-19T23:12:40.265Z,23.93
2017-05-19T23:13:42.586Z,23.96
2017-05-19T23:14:44.963Z,23.91
2017-05-19T23:15:47.338Z,23.95
2017-05-19T23:16:49.703Z,23.98
2017-05-19T23:17:52.672Z,23.91
2017-05-19T23:18:55.029Z,23.96
2017-05-19T23:19:57.393Z,23.91
2017-05-19T23:20:59.770Z,23.92
2017-05-19T23:22:02.133Z,23.74
2017-05-19T23:23:05.096Z,23.69
2017-05-19T23:24:07.503Z,23.65
2017-05-19T23:25:09.815Z,23.74
2017-05-19T23:26:12.183Z,23.76
2017-05-19T23:27:14.576Z,23.69
2017-05-19T23:28:17.544Z,23.76
2017-05-19T23:29:19.915Z,23.69
2017-05-19T23:30:22.325Z,23.73
2017-05-19T23:31:24.681Z,23.69
2017-05-19T23:32:27.053Z,23.68
2017-05-19T23:33:30.019Z,23.58
2017-05-19T23:34:32.395Z,23.56
2017-05-19T23:35:34.765Z,23.43
2017-05-19T23:36:37.130Z,23.50
2017-05-19T23:37:39.520Z,23.41
2017-05-19T23:38:42.481Z,23.46
2017-05-19T23:39:44.850Z,23.34
2017-05-19T23:40:47.220Z,23.39
2017-05-19T23:41:49.590Z,23.36
2017-05-19T23:42:51.966Z,23.36
2017-05-19T23:43:54.928Z,23.27
2017-05-19T23:44:57.300Z,23.36
2017-05-19T23:45:59.670Z,23.31
2017-05-19T23:47:02.039Z,23.27
2017-05-19T23:48:04.397Z,23.36
2017-05-19T23:49:07.380Z,23.34
2017-05-19T23:50:09.738Z,23.25
2017-05-19T23:51:12.122Z,23.34
2017-05-19T23:52:14.485Z,23.28
2017-05-19T23:53:16.877Z,23.25
2017-05-19T23:54:19.858Z,23.24
2017-05-19T23:55:22.220Z,23.24
2017-05-19T23:56:24.589Z,23.20
2017-05-19T23:57:26.946Z,23.13
2017-05-19T23:58:29.322Z,23.12
2017-05-19T23:59:32.386Z,23.15
